sensor_id;sensor_type;location;lat;lon;timestamp;temperature;humidity
14093;DHT22;7123;49.468;10.992;2023-02-28T00:00:38;0.70;99.90
14093;DHT22;7123;49.468;10.992;2023-02-28T00:03:05;0.70;99.90
14093;DHT22;7123;49.468;10.992;2023-02-28T00:05:32;0.70;99.90
14093;DHT22;7123;49.468;10.992;2023-02-28T00:07:59;0.70;99.90
14093;DHT22;7123;49.468;10.992;2023-02-28T00:10:29;0.70;99.90
14093;DHT22;7123;49.468;10.992;2023-02-28T00:12:59;0.60;99.90
14093;DHT22;7123;49.468;10.992;2023-02-28T00:15:27;0.70;99.90
14093;DHT22;7123;49.468;10.992;2023-02-28T00:17:53;0.60;99.90
14093;DHT22;7123;49.468;10.992;2023-02-28T00:20:20;0.60;99.90
14093;DHT22;7123;49.468;10.992;2023-02-28T00:22:51;0.60;99.90
14093;DHT22;7123;49.468;10.992;2023-02-28T00:25:20;0.60;99.90
14093;DHT22;7123;49.468;10.992;2023-02-28T00:27:47;0.60;99.90
14093;DHT22;7123;49.468;10.992;2023-02-28T00:30:20;0.60;99.90
14093;DHT22;7123;49.468;10.992;2023-02-28T00:32:47;0.60;99.90
14093;DHT22;7123;49.468;10.992;2023-02-28T00:35:14;0.60;99.90
14093;DHT22;7123;49.468;10.992;2023-02-28T00:37:41;0.50;99.90
14093;DHT22;7123;49.468;10.992;2023-02-28T00:40:09;0.50;99.90
14093;DHT22;7123;49.468;10.992;2023-02-28T00:42:37;0.50;99.90
14093;DHT22;7123;49.468;10.992;2023-02-28T00:45:05;0.50;99.90
14093;DHT22;7123;49.468;10.992;2023-02-28T00:47:32;0.40;99.90
14093;DHT22;7123;49.468;10.992;2023-02-28T00:49:59;0.40;99.90
14093;DHT22;7123;49.468;10.992;2023-02-28T00:52:26;0.40;99.90
14093;DHT22;7123;49.468;10.992;2023-02-28T00:54:53;0.40;99.90
14093;DHT22;7123;49.468;10.992;2023-02-28T00:57:20;0.40;99.90
14093;DHT22;7123;49.468;10.992;2023-02-28T00:59:46;0.40;99.90
14093;DHT22;7123;49.468;10.992;2023-02-28T01:02:13;0.40;99.90
14093;DHT22;7123;49.468;10.992;2023-02-28T01:04:40;0.40;99.90
14093;DHT22;7123;49.468;10.992;2023-02-28T01:07:07;0.40;99.90
14093;DHT22;7123;49.468;10.992;2023-02-28T01:09:34;0.40;99.90
14093;DHT22;7123;49.468;10.992;2023-02-28T01:12:00;0.40;99.90
14093;DHT22;7123;49.468;10.992;2023-02-28T01:14:27;0.30;99.90
14093;DHT22;7123;49.468;10.992;2023-02-28T01:16:53;0.30;99.90
14093;DHT22;7123;49.468;10.992;2023-02-28T01:19:20;0.30;99.90
14093;DHT22;7123;49.468;10.992;2023-02-28T01:21:47;0.30;99.90
14093;DHT22;7123;49.468;10.992;2023-02-28T01:24:14;0.20;99.90
14093;DHT22;7123;49.468;10.992;2023-02-28T01:26:40;0.30;99.90
14093;DHT22;7123;49.468;10.992;2023-02-28T01:29:07;0.20;99.90
14093;DHT22;7123;49.468;10.992;2023-02-28T01:31:34;0.30;99.90
14093;DHT22;7123;49.468;10.992;2023-02-28T01:34:00;0.20;99.90
14093;DHT22;7123;49.468;10.992;2023-02-28T01:36:27;0.20;99.90
14093;DHT22;7123;49.468;10.992;2023-02-28T01:38:54;0.20;99.90
14093;DHT22;7123;49.468;10.992;2023-02-28T01:41:26;0.20;99.90
14093;DHT22;7123;49.468;10.992;2023-02-28T01:44:06;0.20;99.90
14093;DHT22;7123;49.468;10.992;2023-02-28T01:46:35;0.20;99.90
14093;DHT22;7123;49.468;10.992;2023-02-28T01:49:17;0.20;99.90
14093;DHT22;7123;49.468;10.992;2023-02-28T01:51:46;0.10;99.90
14093;DHT22;7123;49.468;10.992;2023-02-28T01:56:55;0.20;99.90
14093;DHT22;7123;49.468;10.992;2023-02-28T01:59:30;0.10;99.90
14093;DHT22;7123;49.468;10.992;2023-02-28T02:01:58;0.10;99.90
14093;DHT22;7123;49.468;10.992;2023-02-28T02:04:27;0.10;99.90
14093;DHT22;7123;49.468;10.992;2023-02-28T02:06:59;0.10;99.90
14093;DHT22;7123;49.468;10.992;2023-02-28T02:09:26;0.10;99.90
14093;DHT22;7123;49.468;10.992;2023-02-28T02:11:55;0.10;99.90
14093;DHT22;7123;49.468;10.992;2023-02-28T02:14:43;0.10;99.90
14093;DHT22;7123;49.468;10.992;2023-02-28T02:21:11;0.20;99.90
14093;DHT22;7123;49.468;10.992;2023-02-28T02:34:13;0.20;99.90
14093;DHT22;7123;49.468;10.992;2023-02-28T02:41:53;0.10;99.90
14093;DHT22;7123;49.468;10.992;2023-02-28T02:44:27;0.20;99.90
14093;DHT22;7123;49.468;10.992;2023-02-28T02:46:59;0.20;99.90
14093;DHT22;7123;49.468;10.992;2023-02-28T02:49:32;0.20;99.90
14093;DHT22;7123;49.468;10.992;2023-02-28T02:52:04;0.10;99.90
14093;DHT22;7123;49.468;10.992;2023-02-28T02:54:35;0.10;99.90
14093;DHT22;7123;49.468;10.992;2023-02-28T02:57:09;0.10;99.90
14093;DHT22;7123;49.468;10.992;2023-02-28T02:59:39;0.10;99.90
14093;DHT22;7123;49.468;10.992;2023-02-28T03:02:09;0.10;99.90
14093;DHT22;7123;49.468;10.992;2023-02-28T03:04:48;0.00;99.90
14093;DHT22;7123;49.468;10.992;2023-02-28T03:07:15;0.00;99.90
14093;DHT22;7123;49.468;10.992;2023-02-28T03:09:51;0.00;99.90
14093;DHT22;7123;49.468;10.992;2023-02-28T03:12:19;0.00;99.90
14093;DHT22;7123;49.468;10.992;2023-02-28T03:15:08;0.00;99.90
14093;DHT22;7123;49.468;10.992;2023-02-28T03:20:56;-0.10;99.90
14093;DHT22;7123;49.468;10.992;2023-02-28T03:26:07;-0.10;99.90
14093;DHT22;7123;49.468;10.992;2023-02-28T03:31:39;-0.10;99.90
14093;DHT22;7123;49.468;10.992;2023-02-28T03:36:44;-0.20;99.90
14093;DHT22;7123;49.468;10.992;2023-02-28T03:39:34;-0.20;99.90
14093;DHT22;7123;49.468;10.992;2023-02-28T03:42:24;-0.20;99.90
14093;DHT22;7123;49.468;10.992;2023-02-28T03:45:00;-0.20;99.90
14093;DHT22;7123;49.468;10.992;2023-02-28T03:47:54;-0.20;99.90
14093;DHT22;7123;49.468;10.992;2023-02-28T03:53:27;-0.20;99.90
14093;DHT22;7123;49.468;10.992;2023-02-28T03:56:11;-0.20;99.90
14093;DHT22;7123;49.468;10.992;2023-02-28T03:58:58;-0.20;99.90
14093;DHT22;7123;49.468;10.992;2023-02-28T04:01:39;-0.20;99.90
14093;DHT22;7123;49.468;10.992;2023-02-28T04:04:08;-0.20;99.90
14093;DHT22;7123;49.468;10.992;2023-02-28T04:06:37;-0.20;99.90
14093;DHT22;7123;49.468;10.992;2023-02-28T04:09:05;-0.20;99.90
14093;DHT22;7123;49.468;10.992;2023-02-28T04:11:35;-0.20;99.90
14093;DHT22;7123;49.468;10.992;2023-02-28T04:14:04;-0.20;99.90
14093;DHT22;7123;49.468;10.992;2023-02-28T04:16:32;-0.10;99.90
14093;DHT22;7123;49.468;10.992;2023-02-28T04:19:03;-0.10;99.90
14093;DHT22;7123;49.468;10.992;2023-02-28T04:21:40;-0.10;99.90
14093;DHT22;7123;49.468;10.992;2023-02-28T04:24:12;-0.10;99.90
14093;DHT22;7123;49.468;10.992;2023-02-28T04:26:43;-0.10;99.90
14093;DHT22;7123;49.468;10.992;2023-02-28T04:29:11;-0.10;99.90
14093;DHT22;7123;49.468;10.992;2023-02-28T04:31:38;-0.10;99.90
14093;DHT22;7123;49.468;10.992;2023-02-28T04:34:06;-0.10;99.90
14093;DHT22;7123;49.468;10.992;2023-02-28T04:36:32;-0.10;99.90
14093;DHT22;7123;49.468;10.992;2023-02-28T04:39:00;-0.10;99.90
14093;DHT22;7123;49.468;10.992;2023-02-28T04:41:27;-0.10;99.90
14093;DHT22;7123;49.468;10.992;2023-02-28T04:43:58;-0.10;99.90
14093;DHT22;7123;49.468;10.992;2023-02-28T04:46:24;-0.10;99.90
14093;DHT22;7123;49.468;10.992;2023-02-28T04:48:51;-0.10;99.90
14093;DHT22;7123;49.468;10.992;2023-02-28T04:51:18;-0.10;99.90
14093;DHT22;7123;49.468;10.992;2023-02-28T04:53:47;-0.10;99.90
14093;DHT22;7123;49.468;10.992;2023-02-28T04:56:16;-0.10;99.90
14093;DHT22;7123;49.468;10.992;2023-02-28T04:58:43;-0.10;99.90
14093;DHT22;7123;49.468;10.992;2023-02-28T05:01:18;-0.10;99.90
14093;DHT22;7123;49.468;10.992;2023-02-28T05:03:45;-0.10;99.90
14093;DHT22;7123;49.468;10.992;2023-02-28T05:06:12;-0.20;99.90
14093;DHT22;7123;49.468;10.992;2023-02-28T05:08:40;-0.10;99.90
14093;DHT22;7123;49.468;10.992;2023-02-28T05:11:21;-0.20;99.90
14093;DHT22;7123;49.468;10.992;2023-02-28T05:13:49;-0.20;99.90
14093;DHT22;7123;49.468;10.992;2023-02-28T05:16:16;-0.10;99.90
14093;DHT22;7123;49.468;10.992;2023-02-28T05:18:43;-0.10;99.90
14093;DHT22;7123;49.468;10.992;2023-02-28T05:21:48;-0.10;99.90
14093;DHT22;7123;49.468;10.992;2023-02-28T05:24:15;-0.20;99.90
14093;DHT22;7123;49.468;10.992;2023-02-28T05:26:50;-0.20;99.90
14093;DHT22;7123;49.468;10.992;2023-02-28T05:29:18;-0.10;99.90
14093;DHT22;7123;49.468;10.992;2023-02-28T05:31:46;-0.20;99.90
14093;DHT22;7123;49.468;10.992;2023-02-28T05:34:13;-0.20;99.90
14093;DHT22;7123;49.468;10.992;2023-02-28T05:36:41;-0.10;99.90
14093;DHT22;7123;49.468;10.992;2023-02-28T05:39:09;-0.20;99.90
14093;DHT22;7123;49.468;10.992;2023-02-28T05:41:40;-0.20;99.90
14093;DHT22;7123;49.468;10.992;2023-02-28T05:44:08;-0.20;99.90
14093;DHT22;7123;49.468;10.992;2023-02-28T05:46:34;-0.20;99.90
14093;DHT22;7123;49.468;10.992;2023-02-28T05:49:02;-0.20;99.90
14093;DHT22;7123;49.468;10.992;2023-02-28T05:51:29;-0.20;99.90
14093;DHT22;7123;49.468;10.992;2023-02-28T05:53:59;-0.20;99.90
14093;DHT22;7123;49.468;10.992;2023-02-28T05:56:27;-0.20;99.90
14093;DHT22;7123;49.468;10.992;2023-02-28T05:58:53;-0.20;99.90
14093;DHT22;7123;49.468;10.992;2023-02-28T06:01:58;-0.20;99.90
14093;DHT22;7123;49.468;10.992;2023-02-28T06:04:25;-0.20;99.90
14093;DHT22;7123;49.468;10.992;2023-02-28T06:06:58;-0.20;99.90
14093;DHT22;7123;49.468;10.992;2023-02-28T06:09:24;-0.20;99.90
14093;DHT22;7123;49.468;10.992;2023-02-28T06:11:51;-0.20;99.90
14093;DHT22;7123;49.468;10.992;2023-02-28T06:14:19;-0.20;99.90
14093;DHT22;7123;49.468;10.992;2023-02-28T06:16:46;-0.20;99.90
14093;DHT22;7123;49.468;10.992;2023-02-28T06:19:13;-0.20;99.90
14093;DHT22;7123;49.468;10.992;2023-02-28T06:21:41;-0.20;99.90
14093;DHT22;7123;49.468;10.992;2023-02-28T06:24:09;-0.20;99.90
14093;DHT22;7123;49.468;10.992;2023-02-28T06:26:36;-0.20;99.90
14093;DHT22;7123;49.468;10.992;2023-02-28T06:29:03;-0.20;99.90
14093;DHT22;7123;49.468;10.992;2023-02-28T06:31:29;-0.10;99.90
14093;DHT22;7123;49.468;10.992;2023-02-28T06:33:57;-0.10;99.90
14093;DHT22;7123;49.468;10.992;2023-02-28T06:36:23;-0.10;99.90
14093;DHT22;7123;49.468;10.992;2023-02-28T06:38:50;-0.10;99.90
14093;DHT22;7123;49.468;10.992;2023-02-28T06:41:23;-0.10;99.90
14093;DHT22;7123;49.468;10.992;2023-02-28T06:43:49;0.00;99.90
14093;DHT22;7123;49.468;10.992;2023-02-28T06:46:16;0.00;99.90
14093;DHT22;7123;49.468;10.992;2023-02-28T06:48:44;0.00;99.90
14093;DHT22;7123;49.468;10.992;2023-02-28T06:51:18;0.00;99.90
14093;DHT22;7123;49.468;10.992;2023-02-28T06:53:46;0.00;99.90
14093;DHT22;7123;49.468;10.992;2023-02-28T06:56:15;0.00;99.90
14093;DHT22;7123;49.468;10.992;2023-02-28T06:58:45;0.00;99.90
14093;DHT22;7123;49.468;10.992;2023-02-28T07:01:13;0.00;99.90
14093;DHT22;7123;49.468;10.992;2023-02-28T07:03:40;0.10;99.90
14093;DHT22;7123;49.468;10.992;2023-02-28T07:06:07;0.10;99.90
14093;DHT22;7123;49.468;10.992;2023-02-28T07:08:34;0.10;99.90
14093;DHT22;7123;49.468;10.992;2023-02-28T07:11:03;0.10;99.90
14093;DHT22;7123;49.468;10.992;2023-02-28T07:13:30;0.10;99.90
14093;DHT22;7123;49.468;10.992;2023-02-28T07:15:59;0.10;99.90
14093;DHT22;7123;49.468;10.992;2023-02-28T07:18:26;0.20;99.90
14093;DHT22;7123;49.468;10.992;2023-02-28T07:20:53;0.20;99.90
14093;DHT22;7123;49.468;10.992;2023-02-28T07:23:20;0.20;99.90
14093;DHT22;7123;49.468;10.992;2023-02-28T07:25:47;0.20;99.90
14093;DHT22;7123;49.468;10.992;2023-02-28T07:28:15;0.20;99.90
14093;DHT22;7123;49.468;10.992;2023-02-28T07:30:42;0.20;99.90
14093;DHT22;7123;49.468;10.992;2023-02-28T07:33:09;0.20;99.90
14093;DHT22;7123;49.468;10.992;2023-02-28T07:35:36;0.20;99.90
14093;DHT22;7123;49.468;10.992;2023-02-28T07:38:03;0.20;99.90
14093;DHT22;7123;49.468;10.992;2023-02-28T07:40:30;0.30;99.90
14093;DHT22;7123;49.468;10.992;2023-02-28T07:43:02;0.20;99.90
14093;DHT22;7123;49.468;10.992;2023-02-28T07:45:32;0.30;99.90
14093;DHT22;7123;49.468;10.992;2023-02-28T07:48:01;0.30;99.90
14093;DHT22;7123;49.468;10.992;2023-02-28T07:50:31;0.30;99.90
14093;DHT22;7123;49.468;10.992;2023-02-28T07:52:58;0.30;99.90
14093;DHT22;7123;49.468;10.992;2023-02-28T07:55:25;0.40;99.90
14093;DHT22;7123;49.468;10.992;2023-02-28T07:57:53;0.40;99.90
14093;DHT22;7123;49.468;10.992;2023-02-28T08:00:20;0.40;99.90
14093;DHT22;7123;49.468;10.992;2023-02-28T08:02:48;0.50;99.90
14093;DHT22;7123;49.468;10.992;2023-02-28T08:05:14;0.50;99.90
14093;DHT22;7123;49.468;10.992;2023-02-28T08:07:41;0.50;99.90
14093;DHT22;7123;49.468;10.992;2023-02-28T08:10:08;0.70;99.90
14093;DHT22;7123;49.468;10.992;2023-02-28T08:12:36;0.60;99.90
14093;DHT22;7123;49.468;10.992;2023-02-28T08:15:03;0.60;99.90
14093;DHT22;7123;49.468;10.992;2023-02-28T08:17:29;0.60;99.90
14093;DHT22;7123;49.468;10.992;2023-02-28T08:19:58;0.60;99.90
14093;DHT22;7123;49.468;10.992;2023-02-28T08:22:24;0.60;99.90
14093;DHT22;7123;49.468;10.992;2023-02-28T08:24:51;0.70;99.90
14093;DHT22;7123;49.468;10.992;2023-02-28T08:27:18;0.70;99.90
14093;DHT22;7123;49.468;10.992;2023-02-28T08:29:44;0.80;99.90
14093;DHT22;7123;49.468;10.992;2023-02-28T08:32:11;0.80;99.90
14093;DHT22;7123;49.468;10.992;2023-02-28T08:34:54;0.90;99.90
14093;DHT22;7123;49.468;10.992;2023-02-28T08:37:21;0.90;99.90
14093;DHT22;7123;49.468;10.992;2023-02-28T08:39:48;1.00;99.90
14093;DHT22;7123;49.468;10.992;2023-02-28T08:42:14;1.00;99.90
14093;DHT22;7123;49.468;10.992;2023-02-28T08:44:41;1.00;99.90
14093;DHT22;7123;49.468;10.992;2023-02-28T08:47:08;1.00;99.90
14093;DHT22;7123;49.468;10.992;2023-02-28T08:49:34;1.00;99.90
14093;DHT22;7123;49.468;10.992;2023-02-28T08:52:01;1.00;99.90
14093;DHT22;7123;49.468;10.992;2023-02-28T08:54:28;1.10;99.90
14093;DHT22;7123;49.468;10.992;2023-02-28T08:56:57;1.10;99.90
14093;DHT22;7123;49.468;10.992;2023-02-28T08:59:24;1.10;99.90
14093;DHT22;7123;49.468;10.992;2023-02-28T09:01:50;1.10;99.90
14093;DHT22;7123;49.468;10.992;2023-02-28T09:04:17;1.10;99.90
14093;DHT22;7123;49.468;10.992;2023-02-28T09:06:46;1.20;99.90
14093;DHT22;7123;49.468;10.992;2023-02-28T09:09:15;1.30;99.90
14093;DHT22;7123;49.468;10.992;2023-02-28T09:11:42;1.30;99.90
14093;DHT22;7123;49.468;10.992;2023-02-28T09:14:11;1.40;99.90
14093;DHT22;7123;49.468;10.992;2023-02-28T09:16:38;1.40;99.90
14093;DHT22;7123;49.468;10.992;2023-02-28T09:19:05;1.40;99.90
14093;DHT22;7123;49.468;10.992;2023-02-28T09:21:32;1.40;99.90
14093;DHT22;7123;49.468;10.992;2023-02-28T09:23:58;1.40;99.90
14093;DHT22;7123;49.468;10.992;2023-02-28T09:26:27;1.50;99.90
14093;DHT22;7123;49.468;10.992;2023-02-28T09:29:08;1.50;99.90
14093;DHT22;7123;49.468;10.992;2023-02-28T09:31:35;1.60;99.90
14093;DHT22;7123;49.468;10.992;2023-02-28T09:34:04;1.60;99.90
14093;DHT22;7123;49.468;10.992;2023-02-28T09:36:30;1.60;99.90
14093;DHT22;7123;49.468;10.992;2023-02-28T09:39:10;1.60;99.90
14093;DHT22;7123;49.468;10.992;2023-02-28T09:41:42;1.70;99.90
14093;DHT22;7123;49.468;10.992;2023-02-28T09:44:28;1.70;99.90
14093;DHT22;7123;49.468;10.992;2023-02-28T09:47:33;1.80;99.90
14093;DHT22;7123;49.468;10.992;2023-02-28T09:50:29;1.80;99.90
14093;DHT22;7123;49.468;10.992;2023-02-28T09:52:57;1.90;99.90
14093;DHT22;7123;49.468;10.992;2023-02-28T09:55:36;1.90;99.90
14093;DHT22;7123;49.468;10.992;2023-02-28T09:59:04;1.90;99.90
14093;DHT22;7123;49.468;10.992;2023-02-28T10:04:00;2.00;99.90
14093;DHT22;7123;49.468;10.992;2023-02-28T10:06:34;2.00;99.90
14093;DHT22;7123;49.468;10.992;2023-02-28T10:09:11;2.00;99.90
14093;DHT22;7123;49.468;10.992;2023-02-28T10:11:40;2.10;99.90
14093;DHT22;7123;49.468;10.992;2023-02-28T10:14:13;2.20;99.90
14093;DHT22;7123;49.468;10.992;2023-02-28T10:16:48;2.20;99.90
14093;DHT22;7123;49.468;10.992;2023-02-28T10:19:34;2.20;99.90
14093;DHT22;7123;49.468;10.992;2023-02-28T10:24:51;2.20;99.90
14093;DHT22;7123;49.468;10.992;2023-02-28T10:27:20;2.20;99.90
14093;DHT22;7123;49.468;10.992;2023-02-28T10:29:50;2.20;99.90
14093;DHT22;7123;49.468;10.992;2023-02-28T10:32:29;2.30;99.90
14093;DHT22;7123;49.468;10.992;2023-02-28T10:37:43;2.30;99.90
14093;DHT22;7123;49.468;10.992;2023-02-28T10:42:55;2.30;99.90
14093;DHT22;7123;49.468;10.992;2023-02-28T10:45:23;2.30;99.90
14093;DHT22;7123;49.468;10.992;2023-02-28T10:59:03;2.30;99.90
14093;DHT22;7123;49.468;10.992;2023-02-28T11:01:47;2.30;99.90
14093;DHT22;7123;49.468;10.992;2023-02-28T11:07:17;2.30;99.90
14093;DHT22;7123;49.468;10.992;2023-02-28T11:09:55;2.40;99.90
14093;DHT22;7123;49.468;10.992;2023-02-28T11:14:59;2.50;99.90
14093;DHT22;7123;49.468;10.992;2023-02-28T11:17:32;2.60;99.90
14093;DHT22;7123;49.468;10.992;2023-02-28T11:20:02;2.60;99.90
14093;DHT22;7123;49.468;10.992;2023-02-28T11:22:32;2.70;99.90
14093;DHT22;7123;49.468;10.992;2023-02-28T11:25:07;2.70;99.90
14093;DHT22;7123;49.468;10.992;2023-02-28T11:27:43;2.70;99.90
14093;DHT22;7123;49.468;10.992;2023-02-28T11:30:25;2.70;99.90
14093;DHT22;7123;49.468;10.992;2023-02-28T11:32:53;2.80;99.90
14093;DHT22;7123;49.468;10.992;2023-02-28T11:35:24;2.80;99.90
14093;DHT22;7123;49.468;10.992;2023-02-28T11:37:52;2.80;99.90
14093;DHT22;7123;49.468;10.992;2023-02-28T11:40:28;2.70;99.90
14093;DHT22;7123;49.468;10.992;2023-02-28T11:45:42;2.80;99.90
14093;DHT22;7123;49.468;10.992;2023-02-28T11:48:21;2.90;99.90
14093;DHT22;7123;49.468;10.992;2023-02-28T12:04:41;3.00;99.90
14093;DHT22;7123;49.468;10.992;2023-02-28T12:07:24;3.00;99.90
14093;DHT22;7123;49.468;10.992;2023-02-28T12:10:01;3.10;99.90
14093;DHT22;7123;49.468;10.992;2023-02-28T12:12:38;3.10;99.90
14093;DHT22;7123;49.468;10.992;2023-02-28T12:18:10;3.20;99.90
14093;DHT22;7123;49.468;10.992;2023-02-28T12:25:44;3.20;99.90
14093;DHT22;7123;49.468;10.992;2023-02-28T12:28:17;3.30;99.90
14093;DHT22;7123;49.468;10.992;2023-02-28T12:31:20;3.20;99.90
14093;DHT22;7123;49.468;10.992;2023-02-28T12:33:52;3.20;99.90
14093;DHT22;7123;49.468;10.992;2023-02-28T12:36:20;3.30;99.90
14093;DHT22;7123;49.468;10.992;2023-02-28T12:39:01;3.30;99.90
14093;DHT22;7123;49.468;10.992;2023-02-28T12:41:41;3.30;99.90
14093;DHT22;7123;49.468;10.992;2023-02-28T12:44:25;3.30;99.90
14093;DHT22;7123;49.468;10.992;2023-02-28T12:46:58;3.30;99.90
14093;DHT22;7123;49.468;10.992;2023-02-28T12:49:30;3.30;99.90
14093;DHT22;7123;49.468;10.992;2023-02-28T12:52:00;3.30;99.90
14093;DHT22;7123;49.468;10.992;2023-02-28T12:54:36;3.30;99.90
14093;DHT22;7123;49.468;10.992;2023-02-28T12:57:14;3.30;99.90
14093;DHT22;7123;49.468;10.992;2023-02-28T12:59:57;3.40;99.90
14093;DHT22;7123;49.468;10.992;2023-02-28T13:11:05;3.50;99.90
14093;DHT22;7123;49.468;10.992;2023-02-28T13:13:45;3.50;99.90
14093;DHT22;7123;49.468;10.992;2023-02-28T13:16:12;3.60;99.90
14093;DHT22;7123;49.468;10.992;2023-02-28T13:18:46;3.50;99.90
14093;DHT22;7123;49.468;10.992;2023-02-28T13:21:29;3.50;99.90
14093;DHT22;7123;49.468;10.992;2023-02-28T13:24:02;3.60;99.90
14093;DHT22;7123;49.468;10.992;2023-02-28T13:29:21;3.60;99.90
14093;DHT22;7123;49.468;10.992;2023-02-28T13:34:37;3.70;99.90
14093;DHT22;7123;49.468;10.992;2023-02-28T13:37:34;3.80;99.90
14093;DHT22;7123;49.468;10.992;2023-02-28T13:40:28;3.90;99.90
14093;DHT22;7123;49.468;10.992;2023-02-28T13:42:56;4.00;99.90
14093;DHT22;7123;49.468;10.992;2023-02-28T13:45:27;4.00;99.90
14093;DHT22;7123;49.468;10.992;2023-02-28T14:08:36;4.30;99.90
14093;DHT22;7123;49.468;10.992;2023-02-28T14:11:06;4.40;99.90
14093;DHT22;7123;49.468;10.992;2023-02-28T14:13:43;4.40;99.90
14093;DHT22;7123;49.468;10.992;2023-02-28T14:16:17;4.50;99.90
14093;DHT22;7123;49.468;10.992;2023-02-28T14:18:55;4.50;99.90
14093;DHT22;7123;49.468;10.992;2023-02-28T14:21:23;4.50;99.90
14093;DHT22;7123;49.468;10.992;2023-02-28T14:29:24;4.80;99.90
14093;DHT22;7123;49.468;10.992;2023-02-28T14:37:13;4.80;99.90
14093;DHT22;7123;49.468;10.992;2023-02-28T14:39:42;4.80;99.90
14093;DHT22;7123;49.468;10.992;2023-02-28T14:42:46;4.80;99.90
14093;DHT22;7123;49.468;10.992;2023-02-28T14:45:20;4.90;99.90
14093;DHT22;7123;49.468;10.992;2023-02-28T14:47:49;5.00;99.90
14093;DHT22;7123;49.468;10.992;2023-02-28T14:50:22;5.00;99.90
14093;DHT22;7123;49.468;10.992;2023-02-28T14:52:53;5.00;99.90
14093;DHT22;7123;49.468;10.992;2023-02-28T14:55:36;5.10;99.90
14093;DHT22;7123;49.468;10.992;2023-02-28T14:58:06;5.20;99.90
14093;DHT22;7123;49.468;10.992;2023-02-28T15:00:46;5.20;99.90
14093;DHT22;7123;49.468;10.992;2023-02-28T15:06:15;5.30;99.90
14093;DHT22;7123;49.468;10.992;2023-02-28T15:08:45;5.40;99.90
14093;DHT22;7123;49.468;10.992;2023-02-28T15:11:17;5.30;99.90
14093;DHT22;7123;49.468;10.992;2023-02-28T15:13:51;5.30;99.90
14093;DHT22;7123;49.468;10.992;2023-02-28T15:16:20;5.30;99.90
14093;DHT22;7123;49.468;10.992;2023-02-28T15:18:48;5.40;99.90
14093;DHT22;7123;49.468;10.992;2023-02-28T15:21:27;5.60;99.90
14093;DHT22;7123;49.468;10.992;2023-02-28T15:23:59;5.60;99.90
14093;DHT22;7123;49.468;10.992;2023-02-28T15:26:39;5.60;99.90
14093;DHT22;7123;49.468;10.992;2023-02-28T15:29:11;5.50;99.90
14093;DHT22;7123;49.468;10.992;2023-02-28T15:31:50;5.50;99.90
14093;DHT22;7123;49.468;10.992;2023-02-28T15:37:33;5.60;99.90
14093;DHT22;7123;49.468;10.992;2023-02-28T15:43:05;5.70;99.90
14093;DHT22;7123;49.468;10.992;2023-02-28T15:45:41;5.70;99.90
14093;DHT22;7123;49.468;10.992;2023-02-28T15:48:22;5.80;99.90
14093;DHT22;7123;49.468;10.992;2023-02-28T15:51:00;5.80;99.90
14093;DHT22;7123;49.468;10.992;2023-02-28T15:53:35;5.90;99.90
14093;DHT22;7123;49.468;10.992;2023-02-28T15:56:21;5.90;99.90
14093;DHT22;7123;49.468;10.992;2023-02-28T15:58:48;5.80;99.90
14093;DHT22;7123;49.468;10.992;2023-02-28T16:01:23;5.70;99.90
14093;DHT22;7123;49.468;10.992;2023-02-28T16:03:53;5.60;99.90
14093;DHT22;7123;49.468;10.992;2023-02-28T16:06:32;5.60;99.90
14093;DHT22;7123;49.468;10.992;2023-02-28T16:08:59;5.40;99.90
14093;DHT22;7123;49.468;10.992;2023-02-28T16:11:26;5.30;99.90
14093;DHT22;7123;49.468;10.992;2023-02-28T16:13:54;5.20;99.90
14093;DHT22;7123;49.468;10.992;2023-02-28T16:16:23;5.10;99.90
14093;DHT22;7123;49.468;10.992;2023-02-28T16:18:51;5.10;99.90
14093;DHT22;7123;49.468;10.992;2023-02-28T16:21:18;5.00;99.90
14093;DHT22;7123;49.468;10.992;2023-02-28T16:23:45;4.90;99.90
14093;DHT22;7123;49.468;10.992;2023-02-28T16:26:23;4.90;99.90
14093;DHT22;7123;49.468;10.992;2023-02-28T16:28:51;4.90;99.90
14093;DHT22;7123;49.468;10.992;2023-02-28T16:31:18;4.80;99.90
14093;DHT22;7123;49.468;10.992;2023-02-28T16:33:48;4.80;99.90
14093;DHT22;7123;49.468;10.992;2023-02-28T16:36:21;4.80;99.90
14093;DHT22;7123;49.468;10.992;2023-02-28T16:38:49;4.80;99.90
14093;DHT22;7123;49.468;10.992;2023-02-28T16:41:19;4.80;99.90
14093;DHT22;7123;49.468;10.992;2023-02-28T16:43:48;4.80;99.90
14093;DHT22;7123;49.468;10.992;2023-02-28T16:46:16;4.80;99.90
14093;DHT22;7123;49.468;10.992;2023-02-28T16:48:44;4.70;99.90
14093;DHT22;7123;49.468;10.992;2023-02-28T16:51:15;4.70;99.90
14093;DHT22;7123;49.468;10.992;2023-02-28T16:53:44;4.60;99.90
14093;DHT22;7123;49.468;10.992;2023-02-28T16:56:19;4.50;99.90
14093;DHT22;7123;49.468;10.992;2023-02-28T16:58:47;4.40;99.90
14093;DHT22;7123;49.468;10.992;2023-02-28T17:01:15;4.30;99.90
14093;DHT22;7123;49.468;10.992;2023-02-28T17:03:42;4.30;99.90
14093;DHT22;7123;49.468;10.992;2023-02-28T17:06:20;4.30;99.90
14093;DHT22;7123;49.468;10.992;2023-02-28T17:08:50;4.30;99.90
14093;DHT22;7123;49.468;10.992;2023-02-28T17:11:17;4.30;99.90
14093;DHT22;7123;49.468;10.992;2023-02-28T17:13:45;4.30;99.90
14093;DHT22;7123;49.468;10.992;2023-02-28T17:16:34;4.30;99.90
14093;DHT22;7123;49.468;10.992;2023-02-28T17:19:04;4.30;99.90
14093;DHT22;7123;49.468;10.992;2023-02-28T17:21:32;4.20;99.90
14093;DHT22;7123;49.468;10.992;2023-02-28T17:23:59;4.10;99.90
14093;DHT22;7123;49.468;10.992;2023-02-28T17:26:26;4.10;99.90
14093;DHT22;7123;49.468;10.992;2023-02-28T17:28:57;4.10;99.90
14093;DHT22;7123;49.468;10.992;2023-02-28T17:31:26;4.10;99.90
14093;DHT22;7123;49.468;10.992;2023-02-28T17:33:53;4.10;99.90
14093;DHT22;7123;49.468;10.992;2023-02-28T17:36:25;4.10;99.90
14093;DHT22;7123;49.468;10.992;2023-02-28T17:38:53;4.10;99.90
14093;DHT22;7123;49.468;10.992;2023-02-28T17:41:22;4.00;99.90
14093;DHT22;7123;49.468;10.992;2023-02-28T17:43:48;4.00;99.90
14093;DHT22;7123;49.468;10.992;2023-02-28T17:46:21;4.00;99.90
14093;DHT22;7123;49.468;10.992;2023-02-28T17:48:49;4.00;99.90
14093;DHT22;7123;49.468;10.992;2023-02-28T17:51:17;4.00;99.90
14093;DHT22;7123;49.468;10.992;2023-02-28T17:53:44;4.00;99.90
14093;DHT22;7123;49.468;10.992;2023-02-28T17:56:12;4.10;99.90
14093;DHT22;7123;49.468;10.992;2023-02-28T17:58:40;4.00;99.90
14093;DHT22;7123;49.468;10.992;2023-02-28T18:01:07;4.00;99.90
14093;DHT22;7123;49.468;10.992;2023-02-28T18:03:34;4.00;99.90
14093;DHT22;7123;49.468;10.992;2023-02-28T18:06:01;4.00;99.90
14093;DHT22;7123;49.468;10.992;2023-02-28T18:08:28;4.00;99.90
14093;DHT22;7123;49.468;10.992;2023-02-28T18:10:55;4.00;99.90
14093;DHT22;7123;49.468;10.992;2023-02-28T18:13:22;4.00;99.90
14093;DHT22;7123;49.468;10.992;2023-02-28T18:15:49;4.00;99.90
14093;DHT22;7123;49.468;10.992;2023-02-28T18:18:15;4.00;99.90
14093;DHT22;7123;49.468;10.992;2023-02-28T18:20:42;4.00;99.90
14093;DHT22;7123;49.468;10.992;2023-02-28T18:23:09;4.00;99.90
14093;DHT22;7123;49.468;10.992;2023-02-28T18:25:36;4.00;99.90
14093;DHT22;7123;49.468;10.992;2023-02-28T18:28:04;4.00;99.90
14093;DHT22;7123;49.468;10.992;2023-02-28T18:30:34;3.90;99.90